Time;durP1;ratioP1;P1;durP2;ratioP2;P2;SDS_P1;SDS_P2;PMS_P1;PMS_P2;Temp;Humidity;BMP_temperature;BMP_pressure;BME280_temperature;BME280_humidity;BME280_pressure;Samples;Min_cycle;Max_cycle;Signal;HPM_P1;HPM_P2
2022/12/11 00:00:47;;;;;;;29.40;12.40;;;0.60;99.90;;;;;;5114200;28;20024;-78
2022/12/11 00:03:15;;;;;;;25.67;11.93;;;0.70;99.90;;;;;;5116033;28;20042;-78
2022/12/11 00:05:40;;;;;;;25.03;12.20;;;0.80;99.90;;;;;;5114609;28;20530;-78
2022/12/11 00:08:06;;;;;;;25.00;11.57;;;0.80;99.90;;;;;;5115084;28;20036;-78
2022/12/11 00:10:32;;;;;;;29.77;12.07;;;0.90;99.90;;;;;;5114979;28;20082;-78
2022/12/11 00:12:58;;;;;;;30.13;12.57;;;0.90;99.90;;;;;;5114550;28;20469;-78
2022/12/11 00:15:23;;;;;;;33.20;13.67;;;0.90;99.90;;;;;;5114635;28;20048;-78
2022/12/11 00:17:49;;;;;;;40.73;15.20;;;0.70;99.90;;;;;;5114451;28;20517;-78
2022/12/11 00:20:15;;;;;;;39.33;15.03;;;0.50;99.90;;;;;;5114190;28;20030;-78
2022/12/11 00:22:40;;;;;;;36.80;15.07;;;0.40;99.90;;;;;;5115350;28;20020;-79
2022/12/11 00:25:06;;;;;;;40.80;14.93;;;0.40;99.90;;;;;;5115803;28;20028;-77
2022/12/11 00:27:32;;;;;;;56.20;23.60;;;0.40;99.90;;;;;;5115930;28;20031;-78
2022/12/11 00:29:58;;;;;;;42.47;16.80;;;0.60;99.90;;;;;;5113896;28;20468;-79
2022/12/11 00:32:24;;;;;;;37.07;14.87;;;0.60;99.90;;;;;;5115123;28;20028;-79
2022/12/11 00:34:49;;;;;;;41.03;15.43;;;0.70;99.90;;;;;;5113753;28;20019;-80
2022/12/11 00:37:15;;;;;;;34.63;14.90;;;0.70;99.90;;;;;;5115282;28;20039;-80
2022/12/11 00:39:40;;;;;;;34.13;14.63;;;0.80;99.90;;;;;;5113730;28;20373;-80
2022/12/11 00:42:07;;;;;;;38.67;15.23;;;0.80;99.90;;;;;;5115378;28;20027;-79
2022/12/11 00:44:32;;;;;;;35.17;14.23;;;0.70;99.90;;;;;;5114606;28;20027;-80
2022/12/11 00:46:58;;;;;;;36.87;14.97;;;0.60;99.90;;;;;;5113686;28;20035;-80
2022/12/11 00:49:24;;;;;;;41.47;14.80;;;0.60;99.90;;;;;;5114661;28;20062;-81
2022/12/11 00:51:49;;;;;;;35.80;14.53;;;0.60;99.90;;;;;;5108230;28;20024;-79
2022/12/11 00:54:15;;;;;;;38.87;14.90;;;0.60;99.90;;;;;;5114360;28;20377;-79
2022/12/11 00:56:41;;;;;;;37.20;14.87;;;0.50;99.90;;;;;;5113862;28;20031;-80
2022/12/11 00:59:06;;;;;;;36.80;15.17;;;0.50;99.90;;;;;;5109078;28;20081;-80
2022/12/11 01:01:32;;;;;;;37.00;15.03;;;0.50;99.90;;;;;;5110750;28;20030;-81
2022/12/11 01:03:58;;;;;;;34.57;15.43;;;0.50;99.90;;;;;;5097885;28;20115;-80
2022/12/11 01:06:25;;;;;;;35.60;15.40;;;0.50;99.90;;;;;;5111303;28;20080;-79
2022/12/11 01:11:36;;;;;;;33.70;15.73;;;0.50;99.90;;;;;;5111592;28;20100;-80
2022/12/11 01:14:03;;;;;;;37.07;14.50;;;0.50;99.90;;;;;;5112151;28;20056;-81
2022/12/11 01:16:29;;;;;;;39.10;16.20;;;0.50;99.90;;;;;;5112132;28;20178;-80
2022/12/11 01:18:55;;;;;;;37.53;15.83;;;0.50;99.90;;;;;;5112067;28;20054;-79
2022/12/11 01:21:21;;;;;;;38.57;16.30;;;0.50;99.90;;;;;;5112471;28;20019;-81
2022/12/11 01:23:49;;;;;;;36.20;14.90;;;0.40;99.90;;;;;;5113324;28;20023;-80
2022/12/11 01:26:14;;;;;;;39.87;15.93;;;0.50;99.90;;;;;;5112298;28;20447;-79
2022/12/11 01:28:41;;;;;;;35.73;14.93;;;0.40;99.90;;;;;;5109160;28;20119;-81
2022/12/11 01:31:08;;;;;;;33.70;15.27;;;0.40;99.90;;;;;;5113441;28;20019;-82
2022/12/11 01:33:34;;;;;;;37.07;15.40;;;0.40;99.90;;;;;;5113524;28;20471;-80
2022/12/11 01:35:59;;;;;;;36.13;15.10;;;0.30;99.90;;;;;;5106900;28;20110;-81
2022/12/11 01:38:25;;;;;;;35.90;14.40;;;0.30;99.90;;;;;;5112363;28;20023;-81
2022/12/11 01:40:51;;;;;;;31.83;13.70;;;0.20;99.90;;;;;;5111822;28;20472;-79
2022/12/11 01:43:17;;;;;;;29.20;13.03;;;0.10;99.90;;;;;;5111644;28;20077;-79
2022/12/11 01:45:46;;;;;;;33.17;14.07;;;0.10;99.90;;;;;;5111483;28;20051;-79
2022/12/11 01:48:18;;;;;;;29.67;13.50;;;0.00;99.90;;;;;;5113236;28;20039;-79
2022/12/11 01:50:49;;;;;;;33.25;14.13;;;0.00;99.90;;;;;;5109016;28;20023;-80
2022/12/11 01:53:21;;;;;;;37.75;14.32;;;-0.10;99.90;;;;;;5113520;28;20460;-79
2022/12/11 01:55:49;;;;;;;36.03;15.20;;;-0.10;99.90;;;;;;5112933;28;20027;-79
2022/12/11 01:58:16;;;;;;;34.93;14.67;;;-0.20;99.90;;;;;;5113150;28;20052;-79
2022/12/11 02:00:41;;;;;;;36.33;14.77;;;-0.30;99.90;;;;;;5112025;28;20024;-80
2022/12/11 02:03:07;;;;;;;37.50;15.13;;;-0.30;99.90;;;;;;5114227;28;20024;-79
2022/12/11 02:05:33;;;;;;;35.17;15.33;;;-0.30;99.90;;;;;;5113015;28;20028;-79
2022/12/11 02:08:01;;;;;;;33.33;14.37;;;-0.30;99.90;;;;;;5112453;28;20038;-79
2022/12/11 02:11:04;;;;;;;32.97;14.77;;;-0.30;99.90;;;;;;5113076;28;20027;-79
2022/12/11 02:13:47;;;;;;;38.43;15.03;;;-0.40;99.90;;;;;;5112860;28;20118;-79
2022/12/11 02:16:31;;;;;;;42.63;16.27;;;-0.50;99.90;;;;;;5112768;28;20063;-79
2022/12/11 02:19:29;;;;;;;39.10;14.67;;;-0.50;99.90;;;;;;5113604;28;20030;-79
2022/12/11 02:21:56;;;;;;;33.50;13.23;;;-0.60;99.90;;;;;;5113741;28;20059;-79
2022/12/11 02:24:59;;;;;;;38.13;14.47;;;-0.60;99.90;;;;;;5113935;28;20049;-79
2022/12/11 02:27:27;;;;;;;38.00;15.93;;;-0.60;99.90;;;;;;5112826;28;20476;-79
2022/12/11 02:30:05;;;;;;;36.67;15.23;;;-0.70;99.90;;;;;;5113525;28;20030;-80
2022/12/11 02:32:42;;;;;;;36.33;15.00;;;-0.70;99.90;;;;;;5112879;28;20026;-79
2022/12/11 02:35:17;;;;;;;33.57;14.20;;;-0.80;99.90;;;;;;5113138;28;20035;-79
2022/12/11 02:37:46;;;;;;;41.73;15.50;;;-0.80;99.90;;;;;;5112173;28;20024;-81
2022/12/11 02:40:15;;;;;;;41.27;15.43;;;-0.90;99.90;;;;;;5112544;28;20031;-79
2022/12/11 02:42:43;;;;;;;39.93;15.27;;;-1.00;99.90;;;;;;5112345;28;20066;-79
2022/12/11 02:45:10;;;;;;;36.97;14.97;;;-0.90;99.90;;;;;;5112648;28;20038;-79
2022/12/11 02:47:37;;;;;;;43.13;16.77;;;-0.90;99.90;;;;;;5113583;28;20039;-79
2022/12/11 02:50:10;;;;;;;42.60;15.90;;;-0.90;99.90;;;;;;5112059;28;20130;-80
2022/12/11 02:52:37;;;;;;;42.40;15.40;;;-1.00;99.90;;;;;;5112429;28;20074;-80
2022/12/11 02:55:07;;;;;;;41.73;15.63;;;-1.10;99.90;;;;;;5112212;28;20036;-79
2022/12/11 02:57:47;;;;;;;45.80;16.00;;;-1.10;99.90;;;;;;5112470;28;20108;-79
2022/12/11 03:00:15;;;;;;;45.30;15.63;;;-1.10;99.90;;;;;;5112663;28;20028;-79
2022/12/11 03:02:42;;;;;;;43.97;16.43;;;-1.10;99.90;;;;;;5112364;28;20380;-78
2022/12/11 03:05:10;;;;;;;42.47;15.63;;;-1.10;99.90;;;;;;5111856;28;20031;-79
2022/12/11 03:07:38;;;;;;;41.40;15.50;;;-1.10;99.90;;;;;;5113417;28;20028;-79
2022/12/11 03:10:06;;;;;;;45.27;15.83;;;-1.10;99.90;;;;;;5112917;28;20059;-79
2022/12/11 03:12:35;;;;;;;42.10;14.53;;;-1.10;99.90;;;;;;5113200;28;20023;-79
2022/12/11 03:15:03;;;;;;;40.93;15.73;;;-1.10;99.90;;;;;;5115403;28;20038;-79
2022/12/11 03:17:50;;;;;;;43.43;16.07;;;-1.00;99.90;;;;;;5115850;28;20055;-79
2022/12/11 03:20:44;;;;;;;47.43;16.30;;;-1.00;99.90;;;;;;5117476;28;20031;-79
2022/12/11 03:23:38;;;;;;;51.57;17.07;;;-0.90;99.90;;;;;;5116459;28;20087;-79
2022/12/11 03:26:09;;;;;;;40.97;16.40;;;-0.90;99.90;;;;;;5116793;28;20100;-79
2022/12/11 03:28:54;;;;;;;49.50;17.30;;;-0.90;99.90;;;;;;5116360;28;20524;-79
2022/12/11 03:31:45;;;;;;;45.37;17.63;;;-0.80;99.90;;;;;;5116078;28;20051;-79
2022/12/11 03:34:45;;;;;;;50.73;17.30;;;-0.80;99.90;;;;;;5116147;28;20023;-79
2022/12/11 03:37:14;;;;;;;42.37;15.30;;;-0.80;99.90;;;;;;5061867;28;20031;-79
2022/12/11 03:39:46;;;;;;;45.40;16.13;;;-0.80;99.90;;;;;;5116927;28;20034;-79
2022/12/11 03:42:14;;;;;;;46.05;16.02;;;-0.80;99.90;;;;;;5116897;28;20050;-79
2022/12/11 03:44:43;;;;;;;41.10;16.47;;;-0.80;99.90;;;;;;5115443;28;20063;-80
2022/12/11 03:47:09;;;;;;;45.57;15.70;;;-0.80;99.90;;;;;;5115256;28;20035;-80
2022/12/11 03:49:41;;;;;;;40.80;15.33;;;-0.80;99.90;;;;;;5116199;28;20019;-79
2022/12/11 03:52:09;;;;;;;48.65;15.80;;;-0.80;99.90;;;;;;5115239;28;20032;-80
2022/12/11 03:54:34;;;;;;;45.70;16.40;;;-0.80;99.90;;;;;;5115719;28;20073;-80
2022/12/11 03:57:02;;;;;;;42.47;15.73;;;-0.80;99.90;;;;;;5115320;28;20069;-80
2022/12/11 03:59:28;;;;;;;41.27;15.23;;;-0.80;99.90;;;;;;5116368;28;20023;-80
2022/12/11 04:01:54;;;;;;;42.63;14.93;;;-0.80;99.90;;;;;;5114975;28;20035;-80
2022/12/11 04:04:19;;;;;;;42.83;16.13;;;-0.80;99.90;;;;;;5115542;28;20376;-80
2022/12/11 04:06:45;;;;;;;39.47;15.67;;;-0.80;99.90;;;;;;5116569;28;20080;-80
2022/12/11 04:09:11;;;;;;;41.73;15.83;;;-0.80;99.90;;;;;;5114974;28;20027;-80
2022/12/11 04:11:38;;;;;;;44.30;16.73;;;-0.70;99.90;;;;;;5115424;28;20027;-80
2022/12/11 04:16:51;;;;;;;38.83;15.13;;;-0.70;99.90;;;;;;5116004;28;20067;-80
2022/12/11 04:24:48;;;;;;;39.27;14.87;;;-0.60;99.90;;;;;;5115033;28;20557;-79
2022/12/11 04:27:47;;;;;;;37.67;14.60;;;-0.60;99.90;;;;;;5115248;28;20060;-79
2022/12/11 04:29:59;;;;;;;44.40;15.07;;;-0.60;99.90;;;;;;5115090;28;20457;-79
2022/12/11 04:32:25;;;;;;;39.17;15.43;;;-0.60;99.90;;;;;;5115252;28;20164;-79
2022/12/11 04:34:50;;;;;;;40.63;14.40;;;-0.60;99.90;;;;;;5115227;28;20035;-80
2022/12/11 04:37:16;;;;;;;46.77;16.50;;;-0.60;99.90;;;;;;5114905;28;20028;-79
2022/12/11 04:39:41;;;;;;;46.87;15.53;;;-0.60;99.90;;;;;;5114535;28;20464;-79
2022/12/11 04:42:07;;;;;;;46.90;15.47;;;-0.60;99.90;;;;;;5115055;28;20031;-79
2022/12/11 04:44:33;;;;;;;37.53;15.13;;;-0.60;99.90;;;;;;5114360;28;20042;-79
2022/12/11 04:46:58;;;;;;;37.90;15.30;;;-0.60;99.90;;;;;;5113967;28;20034;-79
2022/12/11 04:49:24;;;;;;;44.57;16.20;;;-0.60;99.90;;;;;;5114183;28;20115;-79
2022/12/11 04:51:50;;;;;;;41.27;15.77;;;-0.60;99.90;;;;;;5115249;28;20023;-82
2022/12/11 04:54:15;;;;;;;40.03;15.23;;;-0.60;99.90;;;;;;5114515;28;20266;-79
2022/12/11 04:56:41;;;;;;;42.53;15.57;;;-0.60;99.90;;;;;;5114210;28;20073;-79
2022/12/11 04:59:06;;;;;;;41.07;15.53;;;-0.60;99.90;;;;;;5113612;28;20019;-80
2022/12/11 05:01:32;;;;;;;37.43;15.20;;;-0.60;99.90;;;;;;5114126;28;20028;-79
2022/12/11 05:03:58;;;;;;;44.07;16.67;;;-0.60;99.90;;;;;;5113589;28;20023;-80
2022/12/11 05:06:24;;;;;;;42.07;16.03;;;-0.60;99.90;;;;;;5114884;28;20036;-80
2022/12/11 05:08:50;;;;;;;44.63;16.13;;;-0.60;99.90;;;;;;5115401;28;20024;-80
2022/12/11 05:11:16;;;;;;;44.03;15.83;;;-0.60;99.90;;;;;;5113723;28;20264;-80
2022/12/11 05:13:43;;;;;;;37.23;13.83;;;-0.60;99.90;;;;;;5114061;28;20027;-80
2022/12/11 05:16:11;;;;;;;43.17;16.13;;;-0.60;99.90;;;;;;5113096;28;20074;-80
2022/12/11 05:18:37;;;;;;;39.50;16.20;;;-0.60;99.90;;;;;;5114104;28;20519;-81
2022/12/11 05:21:09;;;;;;;40.40;15.60;;;-0.60;99.90;;;;;;5113669;28;20058;-81
2022/12/11 05:23:35;;;;;;;38.42;15.32;;;-0.60;99.90;;;;;;5114349;28;20085;-81
2022/12/11 05:26:03;;;;;;;43.67;15.80;;;-0.60;99.90;;;;;;5114404;28;20035;-81
2022/12/11 05:28:32;;;;;;;38.77;15.00;;;-0.60;99.90;;;;;;5114014;28;20028;-81
2022/12/11 05:31:04;;;;;;;39.97;15.13;;;-0.60;99.90;;;;;;5113282;28;20059;-81
2022/12/11 05:33:30;;;;;;;;;;;-0.60;99.90;;;;;;5113891;28;20019;-80
2022/12/11 05:35:55;;;;;;;42.37;14.93;;;-0.60;99.90;;;;;;5113540;28;19911;-82
2022/12/11 05:38:21;;;;;;;41.43;14.37;;;-0.60;99.90;;;;;;5113964;28;20083;-81
2022/12/11 05:41:05;;;;;;;40.60;14.93;;;-0.60;99.90;;;;;;5113868;28;20031;-81
2022/12/11 05:43:32;;;;;;;41.50;16.33;;;-0.60;99.90;;;;;;5113690;28;20077;-80
2022/12/11 05:46:15;;;;;;;34.90;14.53;;;-0.60;99.90;;;;;;5113048;28;20032;-80
2022/12/11 05:48:42;;;;;;;34.83;14.37;;;-0.60;99.90;;;;;;5113468;28;20111;-80
2022/12/11 05:51:08;;;;;;;35.70;13.43;;;-0.50;99.90;;;;;;5112801;28;20027;-80
2022/12/11 05:53:38;;;;;;;37.13;14.53;;;-0.60;99.90;;;;;;5114036;28;20556;-80
2022/12/11 05:56:06;;;;;;;42.57;14.80;;;-0.60;99.90;;;;;;5112622;28;20020;-80
2022/12/11 05:58:33;;;;;;;35.07;14.00;;;-0.70;99.90;;;;;;5113116;28;20084;-80
2022/12/11 06:00:59;;;;;;;35.40;14.30;;;-0.70;99.90;;;;;;5113723;28;20072;-78
2022/12/11 06:03:24;;;;;;;36.83;13.37;;;-0.70;99.90;;;;;;5112622;28;20023;-78
2022/12/11 06:05:50;;;;;;;39.93;14.07;;;-0.70;99.90;;;;;;5113992;28;20030;-78
2022/12/11 06:08:16;;;;;;;33.83;14.37;;;-0.70;99.90;;;;;;5112536;28;20035;-79
2022/12/11 06:10:45;;;;;;;35.87;13.27;;;-0.70;99.90;;;;;;5114085;28;20085;-79
2022/12/11 06:13:11;;;;;;;38.90;14.80;;;-0.70;99.90;;;;;;5112268;28;20067;-80
2022/12/11 06:15:37;;;;;;;37.17;13.20;;;-0.80;99.90;;;;;;5112759;28;20085;-80
2022/12/11 06:18:02;;;;;;;37.27;13.93;;;-0.80;99.90;;;;;;5112375;28;20349;-80
2022/12/11 06:20:31;;;;;;;36.43;13.30;;;-0.80;99.90;;;;;;5113914;28;20023;-79
2022/12/11 06:22:56;;;;;;;32.93;13.83;;;-0.80;99.90;;;;;;5112359;28;20027;-80
2022/12/11 06:25:22;;;;;;;38.40;14.07;;;-0.80;99.90;;;;;;5112837;28;20081;-80
2022/12/11 06:27:48;;;;;;;33.63;12.80;;;-0.80;99.90;;;;;;5114010;28;20491;-80
2022/12/11 06:30:15;;;;;;;35.00;13.77;;;-0.70;99.90;;;;;;5112501;28;20066;-79
2022/12/11 06:32:41;;;;;;;37.53;13.73;;;-0.70;99.90;;;;;;5114031;28;20020;-79
2022/12/11 06:35:07;;;;;;;41.47;14.77;;;-0.70;99.90;;;;;;5098888;28;20032;-78
2022/12/11 06:37:34;;;;;;;39.07;13.83;;;-0.70;99.90;;;;;;5092131;28;20077;-78
2022/12/11 06:40:01;;;;;;;35.53;12.87;;;-0.70;99.90;;;;;;5091507;28;20036;-78
2022/12/11 06:42:29;;;;;;;35.77;12.97;;;-0.70;99.90;;;;;;5092213;28;20488;-78
2022/12/11 06:44:56;;;;;;;35.90;14.10;;;-0.70;99.90;;;;;;5091828;28;20024;-79
2022/12/11 06:47:22;;;;;;;33.23;13.27;;;-0.70;99.90;;;;;;5090965;28;20044;-80
2022/12/11 06:49:47;;;;;;;35.87;13.47;;;-0.70;99.90;;;;;;5114720;28;20046;-80
2022/12/11 06:52:13;;;;;;;30.83;12.33;;;-0.80;99.90;;;;;;5099934;28;20028;-80
2022/12/11 06:54:38;;;;;;;37.70;13.20;;;-0.80;99.90;;;;;;5104886;28;20032;-80
2022/12/11 06:57:04;;;;;;;35.23;12.50;;;-0.80;99.90;;;;;;5095530;28;20034;-81
2022/12/11 06:59:30;;;;;;;33.87;12.40;;;-0.80;99.90;;;;;;5095112;28;20020;-81
2022/12/11 07:01:55;;;;;;;33.17;12.67;;;-0.80;99.90;;;;;;5095736;28;20033;-81
2022/12/11 07:04:23;;;;;;;42.00;14.27;;;-0.70;99.90;;;;;;5114385;28;20528;-82
2022/12/11 07:06:49;;;;;;;37.53;13.57;;;-0.70;99.90;;;;;;5109369;28;20043;-82
2022/12/11 07:09:15;;;;;;;38.20;14.13;;;-0.70;99.90;;;;;;5105218;28;20020;-82
2022/12/11 07:11:41;;;;;;;41.07;13.73;;;-0.70;99.90;;;;;;5116035;28;20031;-82
2022/12/11 07:14:07;;;;;;;39.43;14.07;;;-0.70;99.90;;;;;;5115316;28;20039;-82
2022/12/11 07:16:33;;;;;;;40.37;14.90;;;-0.70;99.90;;;;;;5116106;28;20076;-83
2022/12/11 07:18:59;;;;;;;37.27;12.97;;;-0.70;99.90;;;;;;5115528;28;20091;-83
2022/12/11 07:21:25;;;;;;;34.73;13.83;;;-0.60;99.90;;;;;;5115601;28;20453;-79
2022/12/11 07:23:50;;;;;;;35.83;12.93;;;-0.60;99.90;;;;;;5100140;28;20098;-79
2022/12/11 07:26:19;;;;;;;33.53;13.33;;;-0.60;99.90;;;;;;5097284;28;20039;-80
2022/12/11 07:28:45;;;;;;;31.17;12.87;;;-0.60;99.90;;;;;;5115595;28;20024;-80
2022/12/11 07:31:13;;;;;;;37.50;13.30;;;-0.50;99.90;;;;;;5116254;28;20032;-80
2022/12/11 07:33:39;;;;;;;33.57;12.97;;;-0.50;99.90;;;;;;5116410;28;20042;-79
2022/12/11 07:36:06;;;;;;;33.47;12.90;;;-0.50;99.90;;;;;;5115052;28;20031;-81
2022/12/11 07:38:32;;;;;;;36.50;12.53;;;-0.50;99.90;;;;;;5115341;28;20019;-79
2022/12/11 07:41:02;;;;;;;30.47;11.90;;;-0.50;99.90;;;;;;5115527;28;20035;-79
2022/12/11 07:43:28;;;;;;;36.57;13.30;;;-0.50;99.90;;;;;;5116024;28;20031;-79
2022/12/11 07:45:53;;;;;;;36.27;13.47;;;-0.50;99.90;;;;;;5099037;28;20055;-79
2022/12/11 07:48:19;;;;;;;34.80;12.87;;;-0.40;99.90;;;;;;5094223;28;20740;-80
2022/12/11 07:50:44;;;;;;;35.10;12.70;;;-0.40;99.90;;;;;;5101394;28;20396;-80
2022/12/11 07:53:10;;;;;;;34.33;12.80;;;-0.40;99.90;;;;;;5114781;28;20032;-80
2022/12/11 07:55:35;;;;;;;33.57;13.90;;;-0.40;99.90;;;;;;5116185;28;20054;-81
2022/12/11 07:58:01;;;;;;;35.37;12.67;;;-0.40;99.90;;;;;;5115854;28;20028;-80
2022/12/11 08:00:27;;;;;;;32.57;12.13;;;-0.30;99.90;;;;;;5114414;28;20069;-81
2022/12/11 08:02:52;;;;;;;33.90;12.83;;;-0.30;99.90;;;;;;5107234;28;20101;-80
2022/12/11 08:05:18;;;;;;;36.57;12.27;;;-0.30;99.90;;;;;;5104968;28;20028;-80
2022/12/11 08:07:43;;;;;;;36.50;12.67;;;-0.30;99.90;;;;;;5099649;28;20032;-80
2022/12/11 08:10:09;;;;;;;36.97;13.13;;;-0.30;99.90;;;;;;5112117;28;20068;-80
2022/12/11 08:12:34;;;;;;;34.60;12.70;;;-0.20;99.90;;;;;;5109680;28;20020;-79
2022/12/11 08:15:00;;;;;;;35.50;12.67;;;-0.20;99.90;;;;;;5102871;28;20031;-79
2022/12/11 08:17:27;;;;;;;41.57;13.43;;;-0.20;99.90;;;;;;5115680;28;20434;-80
2022/12/11 08:19:52;;;;;;;39.63;12.87;;;-0.20;99.90;;;;;;5114477;28;20418;-79
2022/12/11 08:22:18;;;;;;;35.67;12.67;;;-0.20;99.90;;;;;;5113664;28;20024;-79
2022/12/11 08:24:44;;;;;;;37.93;13.20;;;-0.20;99.90;;;;;;5107444;28;20032;-80
2022/12/11 08:27:09;;;;;;;33.80;12.87;;;-0.20;99.90;;;;;;5104258;28;20028;-80
2022/12/11 08:29:35;;;;;;;35.87;13.10;;;-0.10;99.90;;;;;;5100626;28;20115;-80
2022/12/11 08:32:01;;;;;;;36.23;13.17;;;-0.10;99.90;;;;;;5094223;28;20178;-80
2022/12/11 08:34:26;;;;;;;36.83;14.07;;;-0.10;99.90;;;;;;5109547;28;20468;-78
2022/12/11 08:36:52;;;;;;;36.27;12.37;;;0.00;99.90;;;;;;5101028;28;20053;-80
2022/12/11 08:39:18;;;;;;;33.77;13.63;;;-0.10;99.90;;;;;;5102021;28;20020;-80
2022/12/11 08:41:44;;;;;;;39.27;13.87;;;-0.10;99.90;;;;;;5093741;28;20101;-80
2022/12/11 08:44:11;;;;;;;32.30;12.97;;;-0.10;99.90;;;;;;5095598;28;20377;-79
2022/12/11 08:46:37;;;;;;;33.60;13.47;;;-0.10;99.90;;;;;;5109123;28;20040;-80
2022/12/11 08:49:03;;;;;;;35.90;12.53;;;-0.10;99.90;;;;;;5113086;28;20050;-80
2022/12/11 08:51:29;;;;;;;36.50;14.03;;;0.00;99.90;;;;;;5102063;28;20029;-79
2022/12/11 08:53:57;;;;;;;38.70;13.10;;;0.00;99.90;;;;;;5109699;28;20476;-79
2022/12/11 08:56:23;;;;;;;34.67;13.03;;;0.00;99.90;;;;;;5109634;28;20084;-79
2022/12/11 08:58:49;;;;;;;31.50;12.63;;;0.00;99.90;;;;;;5100556;28;20438;-80
2022/12/11 09:01:21;;;;;;;36.67;12.87;;;0.10;99.90;;;;;;5113265;28;20027;-79
2022/12/11 09:03:48;;;;;;;36.97;12.93;;;0.20;99.90;;;;;;5115044;28;20032;-79
2022/12/11 09:06:17;;;;;;;33.10;12.20;;;0.20;99.90;;;;;;5112555;28;20127;-79
2022/12/11 09:08:44;;;;;;;34.77;13.10;;;0.20;99.90;;;;;;5112977;28;20015;-78
2022/12/11 09:11:19;;;;;;;34.53;12.77;;;0.20;99.90;;;;;;5112352;28;20031;-79
2022/12/11 09:13:45;;;;;;;30.87;12.20;;;0.20;99.90;;;;;;5114095;28;20027;-79
2022/12/11 09:16:14;;;;;;;36.57;13.13;;;0.20;99.90;;;;;;5113111;28;20058;-79
2022/12/11 09:18:41;;;;;;;35.53;12.90;;;0.20;99.90;;;;;;5107485;28;20022;-79
2022/12/11 09:21:09;;;;;;;33.40;12.87;;;0.30;99.90;;;;;;5112504;28;20035;-79
2022/12/11 09:23:35;;;;;;;32.83;12.83;;;0.30;99.90;;;;;;5112736;28;20028;-80
2022/12/11 09:26:05;;;;;;;34.83;13.03;;;0.30;99.90;;;;;;5112695;28;20056;-78
2022/12/11 09:28:31;;;;;;;36.97;14.40;;;0.30;99.90;;;;;;5112941;28;20023;-78
2022/12/11 09:30:57;;;;;;;33.87;12.97;;;0.30;99.90;;;;;;5107104;28;20073;-78
2022/12/11 09:33:23;;;;;;;35.20;13.60;;;0.30;99.90;;;;;;5113172;28;20019;-79
2022/12/11 09:35:58;;;;;;;34.83;12.50;;;0.30;99.90;;;;;;5112638;28;20027;-79
2022/12/11 09:38:24;;;;;;;35.63;13.77;;;0.30;99.90;;;;;;5110562;28;20028;-79
2022/12/11 09:40:50;;;;;;;35.10;13.80;;;0.40;99.90;;;;;;5093929;28;20028;-80
2022/12/11 09:43:35;;;;;;;35.13;13.73;;;0.40;99.90;;;;;;5096163;28;20035;-78
2022/12/11 09:46:06;;;;;;;36.87;13.73;;;0.40;99.90;;;;;;5110367;28;20020;-78
2022/12/11 09:48:34;;;;;;;35.30;13.37;;;0.50;99.90;;;;;;5113359;28;20058;-78
2022/12/11 09:51:16;;;;;;;38.23;13.13;;;0.50;99.90;;;;;;5112414;28;20058;-79
2022/12/11 09:53:41;;;;;;;43.47;13.82;;;0.50;99.90;;;;;;5106691;28;20026;-78
2022/12/11 09:56:16;;;;;;;36.40;13.83;;;0.50;99.90;;;;;;5113179;28;20079;-79
2022/12/11 09:58:57;;;;;;;41.30;14.67;;;0.50;99.90;;;;;;5112929;28;20027;-79
2022/12/11 10:01:37;;;;;;;32.67;13.83;;;0.50;99.90;;;;;;5106791;28;20028;-84
2022/12/11 10:04:24;;;;;;;40.27;14.97;;;0.50;99.90;;;;;;5095646;28;20549;-82
2022/12/11 10:07:19;;;;;;;40.47;15.07;;;0.60;99.90;;;;;;5109844;28;20027;-81
2022/12/11 10:10:22;;;;;;;36.47;13.73;;;0.60;99.90;;;;;;5107366;28;20048;-83
2022/12/11 10:13:14;;;;;;;42.93;14.93;;;0.60;99.90;;;;;;5107135;28;20027;-84
2022/12/11 10:15:53;;;;;;;38.40;14.00;;;0.70;99.90;;;;;;5082150;28;20047;-83
2022/12/11 10:18:21;;;;;;;36.83;13.40;;;0.80;99.90;;;;;;5098839;28;20067;-78
2022/12/11 10:20:49;;;;;;;40.73;14.40;;;0.80;99.90;;;;;;5108897;28;20063;-80
2022/12/11 10:23:22;;;;;;;37.30;15.03;;;0.70;99.90;;;;;;5098544;28;20059;-81
2022/12/11 10:26:13;;;;;;;39.57;15.20;;;0.80;99.90;;;;;;5104479;28;20114;-80
2022/12/11 10:28:39;;;;;;;38.37;14.93;;;0.80;99.90;;;;;;5111786;28;20487;-80
2022/12/11 10:31:22;;;;;;;36.27;14.80;;;0.90;99.90;;;;;;5111146;28;20027;-86
2022/12/11 10:33:47;;;;;;;38.67;15.10;;;0.90;99.90;;;;;;5109898;28;20107;-79
2022/12/11 10:36:24;;;;;;;43.17;15.63;;;0.90;99.90;;;;;;5112195;28;20103;-78
2022/12/11 10:38:50;;;;;;;35.43;13.07;;;1.00;99.90;;;;;;5104367;28;20484;-77
2022/12/11 10:41:15;;;;;;;44.07;15.40;;;1.00;99.90;;;;;;5115831;28;20023;-80
2022/12/11 10:43:44;;;;;;;38.83;15.73;;;1.00;99.90;;;;;;5103883;28;20032;-79
2022/12/11 10:46:15;;;;;;;36.80;14.37;;;1.00;99.90;;;;;;5109424;28;20558;-80
2022/12/11 10:48:54;;;;;;;35.47;13.73;;;1.00;99.90;;;;;;5109114;28;20030;-78
2022/12/11 10:51:23;;;;;;;40.07;15.27;;;0.90;99.90;;;;;;5102552;28;20047;-79
2022/12/11 10:53:50;;;;;;;39.83;14.47;;;0.90;99.90;;;;;;5102847;28;20080;-78
2022/12/11 10:56:27;;;;;;;39.50;15.20;;;0.90;99.90;;;;;;5113191;28;20480;-81
2022/12/11 10:58:55;;;;;;;36.93;14.73;;;0.80;99.90;;;;;;5112211;28;20032;-80
2022/12/11 11:01:24;;;;;;;39.67;14.17;;;0.80;99.90;;;;;;5106839;28;20019;-80
2022/12/11 11:04:05;;;;;;;38.20;14.93;;;0.80;99.90;;;;;;5105403;28;20023;-79
2022/12/11 11:06:32;;;;;;;36.97;14.53;;;0.80;99.90;;;;;;5099644;28;20031;-81
2022/12/11 11:08:59;;;;;;;39.07;14.93;;;0.80;99.90;;;;;;5105194;28;20065;-80
2022/12/11 11:11:31;;;;;;;42.93;16.40;;;0.90;99.90;;;;;;5101522;28;20568;-80
2022/12/11 11:14:15;;;;;;;40.67;15.85;;;0.80;99.90;;;;;;5101568;28;20036;-80
2022/12/11 11:16:44;;;;;;;41.97;15.87;;;0.90;99.90;;;;;;5110064;28;20052;-78
2022/12/11 11:19:33;;;;;;;43.10;16.20;;;0.90;99.90;;;;;;5114199;28;20028;-80
2022/12/11 11:22:14;;;;;;;40.93;15.47;;;1.00;99.90;;;;;;5113584;28;20110;-80
2022/12/11 11:24:43;;;;;;;39.23;14.83;;;1.10;99.90;;;;;;5109823;28;20027;-79
2022/12/11 11:27:33;;;;;;;39.20;15.77;;;1.10;99.90;;;;;;5113454;28;20023;-79
2022/12/11 11:30:20;;;;;;;42.37;16.07;;;1.10;99.90;;;;;;5112759;28;20033;-79
2022/12/11 11:32:46;;;;;;;37.77;14.93;;;1.10;99.90;;;;;;5112712;28;20034;-78
2022/12/11 11:35:11;;;;;;;41.60;15.10;;;1.10;99.90;;;;;;5103373;28;20027;-78
2022/12/11 11:37:39;;;;;;;40.27;15.70;;;1.10;99.90;;;;;;5111177;28;20161;-80
2022/12/11 11:40:15;;;;;;;44.80;16.63;;;1.10;99.90;;;;;;5103169;28;20024;-83
2022/12/11 11:42:55;;;;;;;37.13;15.10;;;1.20;99.90;;;;;;5109177;28;20024;-78
2022/12/11 11:45:28;;;;;;;42.57;16.57;;;1.20;99.90;;;;;;5100179;28;20047;-81
2022/12/11 11:48:18;;;;;;;43.30;15.77;;;1.20;99.90;;;;;;5104857;28;20028;-81
2022/12/11 11:50:46;;;;;;;39.83;15.73;;;1.20;99.90;;;;;;5114711;28;20028;-80
2022/12/11 11:53:36;;;;;;;42.70;16.43;;;1.10;99.90;;;;;;5113508;28;20031;-79
2022/12/11 11:56:21;;;;;;;42.30;15.90;;;1.20;99.90;;;;;;5114584;28;20023;-81
2022/12/11 11:58:59;;;;;;;44.10;16.40;;;1.20;99.90;;;;;;5094653;28;20039;-81
2022/12/11 12:01:26;;;;;;;45.07;16.43;;;1.20;99.90;;;;;;5109294;28;20032;-80
2022/12/11 12:03:52;;;;;;;44.67;16.90;;;1.10;99.90;;;;;;5115103;28;20023;-80
2022/12/11 12:06:40;;;;;;;46.83;16.87;;;1.10;99.90;;;;;;5114452;28;20503;-80
2022/12/11 12:09:24;;;;;;;38.53;14.03;;;1.20;99.90;;;;;;5113586;28;20058;-81
2022/12/11 12:12:06;;;;;;;44.43;16.20;;;1.20;99.90;;;;;;5113269;28;20361;-79
2022/12/11 12:14:38;;;;;;;44.88;17.40;;;1.20;99.90;;;;;;5114019;28;20036;-80
2022/12/11 12:17:30;;;;;;;39.27;15.03;;;1.20;99.90;;;;;;5075251;28;1094460;-81
2022/12/11 12:20:04;;;;;;;41.75;15.93;;;1.30;99.90;;;;;;5115561;27;20023;-77
2022/12/11 12:22:50;;;;;;;39.27;15.27;;;1.20;99.90;;;;;;5102741;28;20028;-81
2022/12/11 12:25:23;;;;;;;40.33;15.37;;;1.30;99.90;;;;;;5103281;28;20393;-81
2022/12/11 12:27:52;;;;;;;46.63;17.00;;;1.30;99.90;;;;;;5106395;28;20040;-79
2022/12/11 12:30:18;;;;;;;42.60;15.37;;;1.30;99.90;;;;;;5112487;28;20070;-78
2022/12/11 12:33:13;;;;;;;43.10;16.60;;;1.30;99.90;;;;;;5112999;28;20047;-77
2022/12/11 12:36:09;;;;;;;40.70;15.80;;;1.30;99.90;;;;;;5115131;28;20122;-78
2022/12/11 12:38:41;;;;;;;41.23;15.80;;;1.30;99.90;;;;;;5104800;28;20063;-78
2022/12/11 12:41:20;;;;;;;43.90;17.65;;;1.20;99.90;;;;;;5104767;28;20057;-79
2022/12/11 12:43:57;;;;;;;44.80;17.13;;;1.20;99.90;;;;;;5102630;28;20369;-77
2022/12/11 12:46:40;;;;;;;43.50;17.03;;;1.20;99.90;;;;;;5112397;28;20036;-77
2022/12/11 12:49:13;;;;;;;45.70;17.10;;;1.30;99.90;;;;;;5092868;28;20028;-78
2022/12/11 12:51:42;;;;;;;41.87;15.53;;;1.30;99.90;;;;;;5100808;28;20487;-85
2022/12/11 12:54:14;;;;;;;48.10;18.00;;;1.30;99.90;;;;;;5096946;28;20024;-85
2022/12/11 12:56:42;;;;;;;41.10;15.77;;;1.40;99.90;;;;;;5113896;28;20036;-84